sensor_id;sensor_type;location;lat;lon;timestamp;pressure;altitude;pressure_sealevel;temperature;humidity
77723;BME280;67811;42.656;23.394;2024-01-11T00:02:11;96020.59;;;-4.67;72.77
77723;BME280;67811;42.656;23.394;2024-01-11T00:06:16;96012.28;;;-5.32;74.06
77723;BME280;67811;42.656;23.394;2024-01-11T00:10:22;96013.66;;;-5.64;75.74
77723;BME280;67811;42.656;23.394;2024-01-11T00:14:28;96007.09;;;-5.92;77.58
77723;BME280;67811;42.656;23.394;2024-01-11T00:18:33;96005.81;;;-5.83;77.46
77723;BME280;67811;42.656;23.394;2024-01-11T00:22:38;96005.41;;;-5.93;78.15
77723;BME280;67811;42.656;23.394;2024-01-11T00:26:44;95995.69;;;-5.67;77.70
77723;BME280;67811;42.656;23.394;2024-01-11T00:30:49;95998.34;;;-5.89;78.51
77723;BME280;67811;42.656;23.394;2024-01-11T00:34:54;95998.66;;;-5.56;81.18
77723;BME280;67811;42.656;23.394;2024-01-11T00:38:59;95994.00;;;-5.27;80.51
77723;BME280;67811;42.656;23.394;2024-01-11T00:43:05;95996.78;;;-5.32;78.46
77723;BME280;67811;42.656;23.394;2024-01-11T00:47:10;95982.94;;;-5.11;75.33
77723;BME280;67811;42.656;23.394;2024-01-11T00:51:15;95991.19;;;-5.42;73.82
77723;BME280;67811;42.656;23.394;2024-01-11T00:55:21;95980.69;;;-5.98;75.33
77723;BME280;67811;42.656;23.394;2024-01-11T00:59:26;95982.00;;;-6.30;77.53
77723;BME280;67811;42.656;23.394;2024-01-11T01:03:31;95977.25;;;-6.41;78.53
77723;BME280;67811;42.656;23.394;2024-01-11T01:07:37;95980.97;;;-6.48;78.90
77723;BME280;67811;42.656;23.394;2024-01-11T01:11:42;95975.28;;;-6.56;79.33
77723;BME280;67811;42.656;23.394;2024-01-11T01:15:47;95974.13;;;-6.49;79.09
77723;BME280;67811;42.656;23.394;2024-01-11T01:19:53;95969.69;;;-6.68;79.55
77723;BME280;67811;42.656;23.394;2024-01-11T01:23:58;95975.09;;;-6.30;78.07
77723;BME280;67811;42.656;23.394;2024-01-11T01:28:04;95971.19;;;-6.18;76.78
77723;BME280;67811;42.656;23.394;2024-01-11T01:32:09;95973.66;;;-6.37;77.96
77723;BME280;67811;42.656;23.394;2024-01-11T01:36:15;95972.63;;;-6.33;78.40
77723;BME280;67811;42.656;23.394;2024-01-11T01:40:21;95963.69;;;-6.24;78.41
77723;BME280;67811;42.656;23.394;2024-01-11T01:44:26;95957.81;;;-6.28;78.29
77723;BME280;67811;42.656;23.394;2024-01-11T01:48:32;95947.75;;;-6.34;78.22
77723;BME280;67811;42.656;23.394;2024-01-11T01:52:39;95942.69;;;-6.57;78.26
77723;BME280;67811;42.656;23.394;2024-01-11T01:56:47;95943.69;;;-6.61;78.43
77723;BME280;67811;42.656;23.394;2024-01-11T02:00:53;95938.91;;;-6.28;77.98
77723;BME280;67811;42.656;23.394;2024-01-11T02:04:59;95930.97;;;-6.02;77.35
77723;BME280;67811;42.656;23.394;2024-01-11T02:09:05;95926.16;;;-5.91;76.97
77723;BME280;67811;42.656;23.394;2024-01-11T02:13:11;95920.84;;;-5.67;76.43
77723;BME280;67811;42.656;23.394;2024-01-11T02:17:17;95918.13;;;-5.64;74.46
77723;BME280;67811;42.656;23.394;2024-01-11T02:21:22;95913.88;;;-5.65;74.70
77723;BME280;67811;42.656;23.394;2024-01-11T02:25:29;95918.66;;;-5.76;74.89
77723;BME280;67811;42.656;23.394;2024-01-11T02:29:34;95917.75;;;-5.75;74.61
77723;BME280;67811;42.656;23.394;2024-01-11T02:33:39;95917.88;;;-5.78;75.41
77723;BME280;67811;42.656;23.394;2024-01-11T02:37:46;95920.59;;;-5.81;76.13
77723;BME280;67811;42.656;23.394;2024-01-11T02:41:53;95926.16;;;-5.91;77.21
77723;BME280;67811;42.656;23.394;2024-01-11T02:45:58;95923.03;;;-5.78;77.15
77723;BME280;67811;42.656;23.394;2024-01-11T02:50:04;95914.19;;;-5.92;77.92
77723;BME280;67811;42.656;23.394;2024-01-11T02:54:09;95906.63;;;-5.96;78.19
77723;BME280;67811;42.656;23.394;2024-01-11T02:58:15;95904.84;;;-5.75;77.47
77723;BME280;67811;42.656;23.394;2024-01-11T03:02:20;95900.84;;;-5.83;76.86
77723;BME280;67811;42.656;23.394;2024-01-11T03:06:26;95901.09;;;-5.89;73.86
77723;BME280;67811;42.656;23.394;2024-01-11T03:10:31;95912.81;;;-6.41;75.34
77723;BME280;67811;42.656;23.394;2024-01-11T03:14:36;95900.88;;;-6.87;77.59
77723;BME280;67811;42.656;23.394;2024-01-11T03:18:41;95908.34;;;-7.02;78.74
77723;BME280;67811;42.656;23.394;2024-01-11T03:22:47;95903.94;;;-7.00;79.10
77723;BME280;67811;42.656;23.394;2024-01-11T03:26:52;95897.22;;;-6.82;78.17
77723;BME280;67811;42.656;23.394;2024-01-11T03:30:57;95903.66;;;-6.70;77.91
77723;BME280;67811;42.656;23.394;2024-01-11T03:35:03;95896.81;;;-6.71;78.27
77723;BME280;67811;42.656;23.394;2024-01-11T03:39:08;95896.22;;;-6.56;78.78
77723;BME280;67811;42.656;23.394;2024-01-11T03:43:17;95897.19;;;-6.38;78.26
77723;BME280;67811;42.656;23.394;2024-01-11T03:47:22;95889.19;;;-6.32;77.68
77723;BME280;67811;42.656;23.394;2024-01-11T03:51:27;95891.75;;;-6.30;77.49
77723;BME280;67811;42.656;23.394;2024-01-11T03:55:33;95887.03;;;-6.41;78.16
77723;BME280;67811;42.656;23.394;2024-01-11T03:59:38;95883.22;;;-6.32;77.16
77723;BME280;67811;42.656;23.394;2024-01-11T04:03:44;95883.28;;;-6.34;77.91
77723;BME280;67811;42.656;23.394;2024-01-11T04:07:50;95882.75;;;-6.22;76.95
77723;BME280;67811;42.656;23.394;2024-01-11T04:11:55;95883.75;;;-6.67;77.40
77723;BME280;67811;42.656;23.394;2024-01-11T04:16:04;95885.66;;;-6.72;78.49
77723;BME280;67811;42.656;23.394;2024-01-11T04:20:10;95873.19;;;-7.03;78.58
77723;BME280;67811;42.656;23.394;2024-01-11T04:24:15;95868.19;;;-7.29;80.44
77723;BME280;67811;42.656;23.394;2024-01-11T04:28:20;95874.78;;;-7.46;81.09
77723;BME280;67811;42.656;23.394;2024-01-11T04:32:26;95866.09;;;-7.43;82.01
77723;BME280;67811;42.656;23.394;2024-01-11T04:36:31;95869.91;;;-7.30;81.67
77723;BME280;67811;42.656;23.394;2024-01-11T04:40:36;95871.03;;;-7.15;81.14
77723;BME280;67811;42.656;23.394;2024-01-11T04:44:42;95873.38;;;-6.87;81.18
77723;BME280;67811;42.656;23.394;2024-01-11T04:48:48;95872.25;;;-6.58;79.10
77723;BME280;67811;42.656;23.394;2024-01-11T04:52:53;95873.28;;;-6.42;77.47
77723;BME280;67811;42.656;23.394;2024-01-11T04:56:58;95875.94;;;-6.65;78.01
77723;BME280;67811;42.656;23.394;2024-01-11T05:01:05;95876.97;;;-6.47;77.66
77723;BME280;67811;42.656;23.394;2024-01-11T05:05:10;95875.25;;;-6.48;77.22
77723;BME280;67811;42.656;23.394;2024-01-11T05:09:16;95882.16;;;-6.49;77.55
77723;BME280;67811;42.656;23.394;2024-01-11T05:13:21;95872.19;;;-6.36;76.44
77723;BME280;67811;42.656;23.394;2024-01-11T05:17:26;95873.34;;;-6.23;76.69
77723;BME280;67811;42.656;23.394;2024-01-11T05:21:32;95858.06;;;-6.27;76.55
77723;BME280;67811;42.656;23.394;2024-01-11T05:25:37;95858.34;;;-6.13;76.56
77723;BME280;67811;42.656;23.394;2024-01-11T05:29:42;95859.75;;;-6.06;75.88
77723;BME280;67811;42.656;23.394;2024-01-11T05:33:48;95845.75;;;-6.00;76.32
77723;BME280;67811;42.656;23.394;2024-01-11T05:37:53;95844.72;;;-5.96;75.73
77723;BME280;67811;42.656;23.394;2024-01-11T05:41:59;95847.88;;;-6.10;75.79
77723;BME280;67811;42.656;23.394;2024-01-11T05:46:04;95851.25;;;-6.08;76.13
77723;BME280;67811;42.656;23.394;2024-01-11T05:50:10;95839.63;;;-6.18;76.40
77723;BME280;67811;42.656;23.394;2024-01-11T05:54:15;95840.72;;;-6.03;76.01
77723;BME280;67811;42.656;23.394;2024-01-11T05:58:20;95836.34;;;-6.01;75.97
77723;BME280;67811;42.656;23.394;2024-01-11T06:02:26;95832.78;;;-5.99;76.13
77723;BME280;67811;42.656;23.394;2024-01-11T06:06:31;95832.34;;;-5.90;75.79
77723;BME280;67811;42.656;23.394;2024-01-11T06:10:36;95830.00;;;-5.57;75.08
77723;BME280;67811;42.656;23.394;2024-01-11T06:14:41;95833.25;;;-4.96;74.18
77723;BME280;67811;42.656;23.394;2024-01-11T06:18:47;95831.88;;;-4.33;71.25
77723;BME280;67811;42.656;23.394;2024-01-11T06:22:52;95824.03;;;-3.81;68.46
77723;BME280;67811;42.656;23.394;2024-01-11T06:26:57;95823.41;;;-4.19;68.66
77723;BME280;67811;42.656;23.394;2024-01-11T06:31:03;95825.69;;;-4.65;70.73
77723;BME280;67811;42.656;23.394;2024-01-11T06:35:08;95813.44;;;-4.09;69.96
77723;BME280;67811;42.656;23.394;2024-01-11T06:39:13;95812.75;;;-3.62;67.66
77723;BME280;67811;42.656;23.394;2024-01-11T06:43:19;95803.06;;;-2.66;64.44
77723;BME280;67811;42.656;23.394;2024-01-11T06:47:24;95801.78;;;-1.84;63.20
77723;BME280;67811;42.656;23.394;2024-01-11T06:51:29;95797.22;;;-0.96;60.96
77723;BME280;67811;42.656;23.394;2024-01-11T06:55:34;95793.97;;;0.19;58.10
77723;BME280;67811;42.656;23.394;2024-01-11T06:59:40;95788.22;;;0.27;55.70
77723;BME280;67811;42.656;23.394;2024-01-11T07:03:45;95788.44;;;0.86;53.75
77723;BME280;67811;42.656;23.394;2024-01-11T07:07:51;95791.88;;;1.71;51.37
77723;BME280;67811;42.656;23.394;2024-01-11T07:11:56;95783.81;;;1.85;50.31
77723;BME280;67811;42.656;23.394;2024-01-11T07:16:01;95796.22;;;1.12;51.33
77723;BME280;67811;42.656;23.394;2024-01-11T07:20:07;95788.63;;;1.33;50.69
77723;BME280;67811;42.656;23.394;2024-01-11T07:24:13;95785.91;;;0.97;50.97
77723;BME280;67811;42.656;23.394;2024-01-11T07:28:18;95781.91;;;1.76;48.12
77723;BME280;67811;42.656;23.394;2024-01-11T07:32:23;95786.72;;;1.70;48.15
77723;BME280;67811;42.656;23.394;2024-01-11T07:36:29;95784.69;;;1.62;48.38
77723;BME280;67811;42.656;23.394;2024-01-11T07:40:34;95780.88;;;1.90;47.12
77723;BME280;67811;42.656;23.394;2024-01-11T07:44:39;95787.41;;;2.42;47.57
77723;BME280;67811;42.656;23.394;2024-01-11T07:48:44;95786.38;;;1.98;47.95
77723;BME280;67811;42.656;23.394;2024-01-11T07:52:50;95783.81;;;2.54;46.28
77723;BME280;67811;42.656;23.394;2024-01-11T07:56:55;95781.56;;;2.61;45.92
77723;BME280;67811;42.656;23.394;2024-01-11T08:01:00;95770.38;;;1.79;46.96
77723;BME280;67811;42.656;23.394;2024-01-11T08:05:06;95773.44;;;2.19;47.66
77723;BME280;67811;42.656;23.394;2024-01-11T08:09:11;95772.22;;;3.13;45.39
77723;BME280;67811;42.656;23.394;2024-01-11T08:13:17;95767.38;;;3.52;43.17
77723;BME280;67811;42.656;23.394;2024-01-11T08:17:23;95763.28;;;3.15;44.52
77723;BME280;67811;42.656;23.394;2024-01-11T08:21:28;95763.06;;;3.07;43.64
77723;BME280;67811;42.656;23.394;2024-01-11T08:25:34;95760.75;;;2.59;46.22
77723;BME280;67811;42.656;23.394;2024-01-11T08:29:39;95760.75;;;3.36;44.93
77723;BME280;67811;42.656;23.394;2024-01-11T08:33:44;95755.94;;;3.53;44.37
77723;BME280;67811;42.656;23.394;2024-01-11T08:37:49;95757.38;;;4.50;41.43
77723;BME280;67811;42.656;23.394;2024-01-11T08:41:55;95753.97;;;4.90;40.92
77723;BME280;67811;42.656;23.394;2024-01-11T08:46:00;95742.41;;;5.21;40.01
77723;BME280;67811;42.656;23.394;2024-01-11T08:50:06;95742.66;;;6.44;37.46
77723;BME280;67811;42.656;23.394;2024-01-11T08:54:11;95736.09;;;5.92;37.79
77723;BME280;67811;42.656;23.394;2024-01-11T08:58:16;95732.38;;;6.88;37.76
77723;BME280;67811;42.656;23.394;2024-01-11T09:02:22;95722.66;;;7.16;35.99
77723;BME280;67811;42.656;23.394;2024-01-11T09:06:27;95719.06;;;7.71;36.61
77723;BME280;67811;42.656;23.394;2024-01-11T09:10:33;95712.22;;;7.60;35.50
77723;BME280;67811;42.656;23.394;2024-01-11T09:14:38;95699.50;;;7.99;34.84
77723;BME280;67811;42.656;23.394;2024-01-11T09:18:44;95699.84;;;7.43;35.18
77723;BME280;67811;42.656;23.394;2024-01-11T09:22:50;95701.00;;;6.30;37.64
77723;BME280;67811;42.656;23.394;2024-01-11T09:26:55;95690.81;;;6.54;35.70
77723;BME280;67811;42.656;23.394;2024-01-11T09:31:00;95689.56;;;6.49;36.59
77723;BME280;67811;42.656;23.394;2024-01-11T09:35:06;95686.38;;;5.98;37.14
77723;BME280;67811;42.656;23.394;2024-01-11T09:39:11;95674.09;;;5.99;38.63
77723;BME280;67811;42.656;23.394;2024-01-11T09:43:16;95661.88;;;7.18;37.43
77723;BME280;67811;42.656;23.394;2024-01-11T09:47:23;95651.69;;;6.87;35.58
77723;BME280;67811;42.656;23.394;2024-01-11T09:51:30;95647.97;;;6.15;36.87
77723;BME280;67811;42.656;23.394;2024-01-11T09:55:35;95644.84;;;4.66;38.96
77723;BME280;67811;42.656;23.394;2024-01-11T09:59:41;95624.44;;;5.67;40.56
77723;BME280;67811;42.656;23.394;2024-01-11T10:03:47;95618.81;;;6.64;37.27
77723;BME280;67811;42.656;23.394;2024-01-11T10:07:53;95616.59;;;7.40;36.00
77723;BME280;67811;42.656;23.394;2024-01-11T10:11:58;95601.50;;;7.94;36.51
77723;BME280;67811;42.656;23.394;2024-01-11T10:16:10;95602.47;;;8.19;35.27
77723;BME280;67811;42.656;23.394;2024-01-11T10:20:16;95585.47;;;8.22;35.37
77723;BME280;67811;42.656;23.394;2024-01-11T10:24:21;95576.81;;;8.80;35.28
77723;BME280;67811;42.656;23.394;2024-01-11T10:28:27;95576.41;;;9.58;33.32
77723;BME280;67811;42.656;23.394;2024-01-11T10:32:32;95569.59;;;9.71;32.55
77723;BME280;67811;42.656;23.394;2024-01-11T10:36:37;95555.38;;;8.40;33.78
77723;BME280;67811;42.656;23.394;2024-01-11T10:40:43;95560.72;;;8.23;35.42
77723;BME280;67811;42.656;23.394;2024-01-11T10:44:52;95552.63;;;8.16;36.24
77723;BME280;67811;42.656;23.394;2024-01-11T10:49:02;95551.97;;;7.54;37.55
77723;BME280;67811;42.656;23.394;2024-01-11T10:53:25;95541.59;;;7.86;36.99
77723;BME280;67811;42.656;23.394;2024-01-11T10:57:31;95541.25;;;8.15;36.39
77723;BME280;67811;42.656;23.394;2024-01-11T11:01:39;95521.09;;;8.49;36.16
77723;BME280;67811;42.656;23.394;2024-01-11T11:05:45;95519.84;;;8.93;35.72
77723;BME280;67811;42.656;23.394;2024-01-11T11:09:52;95509.63;;;8.98;35.23
77723;BME280;67811;42.656;23.394;2024-01-11T11:14:00;95494.25;;;8.94;34.59
77723;BME280;67811;42.656;23.394;2024-01-11T11:18:06;95489.63;;;9.20;34.84
77723;BME280;67811;42.656;23.394;2024-01-11T11:22:13;95477.78;;;9.72;33.88
77723;BME280;67811;42.656;23.394;2024-01-11T11:26:18;95471.28;;;8.78;33.41
77723;BME280;67811;42.656;23.394;2024-01-11T11:30:23;95460.22;;;7.13;36.67
77723;BME280;67811;42.656;23.394;2024-01-11T11:34:45;95449.69;;;7.39;37.33
77723;BME280;67811;42.656;23.394;2024-01-11T11:38:51;95442.34;;;7.51;35.52
77723;BME280;67811;42.656;23.394;2024-01-11T11:42:57;95440.81;;;6.53;37.59
77723;BME280;67811;42.656;23.394;2024-01-11T11:47:38;95431.56;;;7.36;36.55
77723;BME280;67811;42.656;23.394;2024-01-11T11:51:43;95428.28;;;6.91;38.05
77723;BME280;67811;42.656;23.394;2024-01-11T11:55:49;95424.50;;;6.67;37.79
77723;BME280;67811;42.656;23.394;2024-01-11T11:59:56;95424.09;;;5.81;39.37
77723;BME280;67811;42.656;23.394;2024-01-11T12:04:02;95415.06;;;5.66;40.07
77723;BME280;67811;42.656;23.394;2024-01-11T12:08:07;95407.13;;;5.75;39.63
77723;BME280;67811;42.656;23.394;2024-01-11T12:12:13;95396.41;;;5.59;40.31
77723;BME280;67811;42.656;23.394;2024-01-11T12:16:18;95392.09;;;5.68;40.45
77723;BME280;67811;42.656;23.394;2024-01-11T12:20:24;95388.69;;;5.30;42.05
77723;BME280;67811;42.656;23.394;2024-01-11T12:24:29;95376.53;;;6.38;41.70
77723;BME280;67811;42.656;23.394;2024-01-11T12:28:34;95369.13;;;6.59;40.77
77723;BME280;67811;42.656;23.394;2024-01-11T12:32:40;95364.16;;;7.34;39.29
77723;BME280;67811;42.656;23.394;2024-01-11T12:36:45;95351.59;;;7.70;38.69
77723;BME280;67811;42.656;23.394;2024-01-11T12:40:51;95350.00;;;7.93;37.50
77723;BME280;67811;42.656;23.394;2024-01-11T12:44:56;95339.16;;;7.97;37.87
77723;BME280;67811;42.656;23.394;2024-01-11T12:49:02;95337.88;;;8.41;36.17
77723;BME280;67811;42.656;23.394;2024-01-11T12:53:11;95330.06;;;8.24;36.62
77723;BME280;67811;42.656;23.394;2024-01-11T12:57:18;95320.63;;;7.80;35.75
77723;BME280;67811;42.656;23.394;2024-01-11T13:01:24;95322.81;;;6.74;38.39
77723;BME280;67811;42.656;23.394;2024-01-11T13:05:29;95318.31;;;6.41;39.65
77723;BME280;67811;42.656;23.394;2024-01-11T13:09:35;95318.66;;;6.20;40.48
77723;BME280;67811;42.656;23.394;2024-01-11T13:13:40;95328.97;;;4.95;42.91
77723;BME280;67811;42.656;23.394;2024-01-11T13:17:45;95304.69;;;5.11;42.96
77723;BME280;67811;42.656;23.394;2024-01-11T13:21:50;95302.91;;;4.84;44.04
77723;BME280;67811;42.656;23.394;2024-01-11T13:25:56;95299.66;;;3.96;45.95
77723;BME280;67811;42.656;23.394;2024-01-11T13:30:01;95298.47;;;4.28;46.63
77723;BME280;67811;42.656;23.394;2024-01-11T13:34:06;95301.56;;;4.13;46.43
77723;BME280;67811;42.656;23.394;2024-01-11T13:38:12;95280.19;;;3.60;48.49
77723;BME280;67811;42.656;23.394;2024-01-11T13:42:17;95272.28;;;4.18;46.69
77723;BME280;67811;42.656;23.394;2024-01-11T13:46:22;95275.25;;;4.42;46.07
77723;BME280;67811;42.656;23.394;2024-01-11T13:50:28;95266.25;;;4.55;45.67
77723;BME280;67811;42.656;23.394;2024-01-11T13:54:33;95255.50;;;5.31;46.27
77723;BME280;67811;42.656;23.394;2024-01-11T13:58:38;95253.63;;;5.76;44.38
77723;BME280;67811;42.656;23.394;2024-01-11T14:02:44;95253.72;;;5.49;45.24
77723;BME280;67811;42.656;23.394;2024-01-11T14:06:50;95239.50;;;5.24;46.68
77723;BME280;67811;42.656;23.394;2024-01-11T14:10:55;95238.97;;;5.20;46.34
77723;BME280;67811;42.656;23.394;2024-01-11T14:15:02;95226.88;;;4.55;47.96
77723;BME280;67811;42.656;23.394;2024-01-11T14:19:08;95225.72;;;4.67;47.79
77723;BME280;67811;42.656;23.394;2024-01-11T14:23:13;95218.09;;;4.46;47.77
77723;BME280;67811;42.656;23.394;2024-01-11T14:27:20;95221.97;;;3.66;50.17
77723;BME280;67811;42.656;23.394;2024-01-11T14:31:25;95222.50;;;3.11;52.45
77723;BME280;67811;42.656;23.394;2024-01-11T14:35:30;95217.13;;;2.94;53.36
77723;BME280;67811;42.656;23.394;2024-01-11T14:39:36;95222.25;;;2.55;54.51
77723;BME280;67811;42.656;23.394;2024-01-11T14:43:41;95220.91;;;2.30;56.02
77723;BME280;67811;42.656;23.394;2024-01-11T14:47:46;95209.38;;;2.32;56.42
77723;BME280;67811;42.656;23.394;2024-01-11T14:51:52;95210.00;;;2.25;56.66
77723;BME280;67811;42.656;23.394;2024-01-11T14:55:57;95218.56;;;2.27;56.79
77723;BME280;67811;42.656;23.394;2024-01-11T15:00:02;95212.41;;;2.07;57.48
77723;BME280;67811;42.656;23.394;2024-01-11T15:04:08;95208.44;;;1.82;59.13
77723;BME280;67811;42.656;23.394;2024-01-11T15:08:13;95218.75;;;1.63;58.47
77723;BME280;67811;42.656;23.394;2024-01-11T15:12:18;95206.63;;;1.41;59.37
77723;BME280;67811;42.656;23.394;2024-01-11T15:16:24;95206.66;;;1.29;59.88
77723;BME280;67811;42.656;23.394;2024-01-11T15:20:29;95215.13;;;1.22;60.96
77723;BME280;67811;42.656;23.394;2024-01-11T15:24:34;95216.06;;;1.21;60.25
77723;BME280;67811;42.656;23.394;2024-01-11T15:28:39;95209.59;;;1.04;61.00
77723;BME280;67811;42.656;23.394;2024-01-11T15:32:45;95216.56;;;0.83;62.18
77723;BME280;67811;42.656;23.394;2024-01-11T15:36:50;95215.16;;;0.67;62.75
77723;BME280;67811;42.656;23.394;2024-01-11T15:40:56;95220.06;;;0.61;63.06
77723;BME280;67811;42.656;23.394;2024-01-11T15:45:01;95219.94;;;0.51;63.52
77723;BME280;67811;42.656;23.394;2024-01-11T15:49:07;95232.63;;;0.33;64.75
77723;BME280;67811;42.656;23.394;2024-01-11T15:53:12;95237.25;;;0.30;64.35
77723;BME280;67811;42.656;23.394;2024-01-11T15:57:17;95234.84;;;0.15;64.31
77723;BME280;67811;42.656;23.394;2024-01-11T16:01:22;95229.28;;;0.09;65.25
77723;BME280;67811;42.656;23.394;2024-01-11T16:05:28;95238.66;;;0.00;65.21
77723;BME280;67811;42.656;23.394;2024-01-11T16:09:33;95237.09;;;0.09;65.00
77723;BME280;67811;42.656;23.394;2024-01-11T16:13:38;95232.34;;;-0.09;64.94
77723;BME280;67811;42.656;23.394;2024-01-11T16:17:44;95224.38;;;-0.30;65.85
77723;BME280;67811;42.656;23.394;2024-01-11T16:21:49;95214.94;;;-0.31;65.62
77723;BME280;67811;42.656;23.394;2024-01-11T16:25:54;95226.84;;;-0.39;66.26
77723;BME280;67811;42.656;23.394;2024-01-11T16:29:59;95226.59;;;-0.47;66.15
77723;BME280;67811;42.656;23.394;2024-01-11T16:34:05;95213.19;;;-0.65;66.84
77723;BME280;67811;42.656;23.394;2024-01-11T16:38:10;95211.50;;;-0.66;66.76
77723;BME280;67811;42.656;23.394;2024-01-11T16:42:15;95206.31;;;-0.66;66.93
77723;BME280;67811;42.656;23.394;2024-01-11T16:46:20;95206.72;;;-0.84;67.45
77723;BME280;67811;42.656;23.394;2024-01-11T16:50:26;95206.19;;;-1.00;67.44
77723;BME280;67811;42.656;23.394;2024-01-11T16:54:31;95206.81;;;-0.96;66.91
77723;BME280;67811;42.656;23.394;2024-01-11T16:58:36;95205.81;;;-1.07;68.08
77723;BME280;67811;42.656;23.394;2024-01-11T17:02:42;95203.66;;;-1.13;67.69
77723;BME280;67811;42.656;23.394;2024-01-11T17:06:47;95204.22;;;-1.20;68.53
77723;BME280;67811;42.656;23.394;2024-01-11T17:10:52;95202.59;;;-1.10;67.83
77723;BME280;67811;42.656;23.394;2024-01-11T17:14:57;95198.19;;;-1.21;67.90
77723;BME280;67811;42.656;23.394;2024-01-11T17:19:03;95200.09;;;-1.12;68.38
77723;BME280;67811;42.656;23.394;2024-01-11T17:23:08;95192.19;;;-1.10;67.24
77723;BME280;67811;42.656;23.394;2024-01-11T17:27:13;95183.00;;;-1.27;67.95
77723;BME280;67811;42.656;23.394;2024-01-11T17:31:18;95177.44;;;-1.34;68.37
77723;BME280;67811;42.656;23.394;2024-01-11T17:35:24;95185.53;;;-1.38;68.83
77723;BME280;67811;42.656;23.394;2024-01-11T17:39:29;95181.66;;;-1.20;73.64
77723;BME280;67811;42.656;23.394;2024-01-11T17:43:35;95175.63;;;-1.20;68.31
77723;BME280;67811;42.656;23.394;2024-01-11T17:47:43;95178.00;;;-1.41;69.08
77723;BME280;67811;42.656;23.394;2024-01-11T17:51:49;95186.94;;;-1.45;68.88
77723;BME280;67811;42.656;23.394;2024-01-11T17:55:54;95187.06;;;-1.47;68.59
77723;BME280;67811;42.656;23.394;2024-01-11T17:59:59;95187.69;;;-1.56;68.85
77723;BME280;67811;42.656;23.394;2024-01-11T18:04:06;95178.00;;;-1.54;68.40
77723;BME280;67811;42.656;23.394;2024-01-11T18:08:11;95177.13;;;-1.66;68.94
77723;BME280;67811;42.656;23.394;2024-01-11T18:12:16;95178.63;;;-1.74;68.86
77723;BME280;67811;42.656;23.394;2024-01-11T18:16:21;95173.84;;;-1.80;69.23
77723;BME280;67811;42.656;23.394;2024-01-11T18:20:27;95172.84;;;-1.91;69.13
77723;BME280;67811;42.656;23.394;2024-01-11T18:24:32;95165.16;;;-1.92;68.69
77723;BME280;67811;42.656;23.394;2024-01-11T18:28:37;95183.13;;;-2.15;69.35
77723;BME280;67811;42.656;23.394;2024-01-11T18:32:43;95170.38;;;-2.18;69.87
77723;BME280;67811;42.656;23.394;2024-01-11T18:36:48;95171.63;;;-2.23;69.74
77723;BME280;67811;42.656;23.394;2024-01-11T18:40:53;95181.59;;;-2.30;69.41
77723;BME280;67811;42.656;23.394;2024-01-11T18:44:58;95179.00;;;-2.43;69.05
77723;BME280;67811;42.656;23.394;2024-01-11T18:49:04;95169.78;;;-2.47;69.33
77723;BME280;67811;42.656;23.394;2024-01-11T18:53:09;95154.59;;;-2.53;68.91
77723;BME280;67811;42.656;23.394;2024-01-11T18:57:15;95170.69;;;-2.60;70.13
77723;BME280;67811;42.656;23.394;2024-01-11T19:01:20;95164.88;;;-2.64;69.14
77723;BME280;67811;42.656;23.394;2024-01-11T19:05:25;95167.06;;;-2.71;68.56
77723;BME280;67811;42.656;23.394;2024-01-11T19:09:31;95153.56;;;-2.76;68.41
77723;BME280;67811;42.656;23.394;2024-01-11T19:13:36;95157.09;;;-2.77;68.69
77723;BME280;67811;42.656;23.394;2024-01-11T19:17:41;95154.09;;;-2.83;69.22
77723;BME280;67811;42.656;23.394;2024-01-11T19:21:46;95157.41;;;-2.81;69.12
77723;BME280;67811;42.656;23.394;2024-01-11T19:25:55;95160.50;;;-2.89;69.49
77723;BME280;67811;42.656;23.394;2024-01-11T19:30:01;95157.50;;;-2.83;69.66
77723;BME280;67811;42.656;23.394;2024-01-11T19:34:06;95148.91;;;-2.83;70.44
77723;BME280;67811;42.656;23.394;2024-01-11T19:38:12;95153.03;;;-2.81;68.88
77723;BME280;67811;42.656;23.394;2024-01-11T19:42:17;95156.69;;;-2.83;68.85
77723;BME280;67811;42.656;23.394;2024-01-11T19:46:22;95160.00;;;-2.81;67.94
77723;BME280;67811;42.656;23.394;2024-01-11T19:50:29;95148.47;;;-2.90;67.87
77723;BME280;67811;42.656;23.394;2024-01-11T19:54:34;95146.09;;;-2.93;67.36
77723;BME280;67811;42.656;23.394;2024-01-11T19:58:39;95161.44;;;-2.90;67.50
77723;BME280;67811;42.656;23.394;2024-01-11T20:02:45;95159.97;;;-2.94;67.18
77723;BME280;67811;42.656;23.394;2024-01-11T20:06:50;95152.09;;;-2.93;67.51
77723;BME280;67811;42.656;23.394;2024-01-11T20:10:56;95149.50;;;-2.93;67.26
77723;BME280;67811;42.656;23.394;2024-01-11T20:15:01;95151.56;;;-2.98;66.94
77723;BME280;67811;42.656;23.394;2024-01-11T20:19:06;95150.44;;;-2.94;66.54
77723;BME280;67811;42.656;23.394;2024-01-11T20:23:12;95151.50;;;-2.96;66.05
77723;BME280;67811;42.656;23.394;2024-01-11T20:27:17;95147.53;;;-2.89;66.47
77723;BME280;67811;42.656;23.394;2024-01-11T20:31:23;95145.97;;;-3.04;65.75
77723;BME280;67811;42.656;23.394;2024-01-11T20:35:28;95144.19;;;-3.04;66.13
77723;BME280;67811;42.656;23.394;2024-01-11T20:39:33;95157.44;;;-3.08;67.57
77723;BME280;67811;42.656;23.394;2024-01-11T20:43:38;95149.78;;;-3.10;66.06
77723;BME280;67811;42.656;23.394;2024-01-11T20:47:44;95151.25;;;-3.06;65.78
77723;BME280;67811;42.656;23.394;2024-01-11T20:51:49;95153.41;;;-3.12;65.98
77723;BME280;67811;42.656;23.394;2024-01-11T20:55:54;95143.06;;;-3.12;65.60
77723;BME280;67811;42.656;23.394;2024-01-11T21:00:00;95156.19;;;-3.28;66.93
77723;BME280;67811;42.656;23.394;2024-01-11T21:04:05;95158.22;;;-3.33;67.31
77723;BME280;67811;42.656;23.394;2024-01-11T21:08:10;95152.56;;;-3.53;67.56
77723;BME280;67811;42.656;23.394;2024-01-11T21:12:15;95161.16;;;-3.52;67.32
77723;BME280;67811;42.656;23.394;2024-01-11T21:16:21;95156.97;;;-3.67;68.87
77723;BME280;67811;42.656;23.394;2024-01-11T21:20:26;95154.38;;;-3.67;67.71
77723;BME280;67811;42.656;23.394;2024-01-11T21:24:31;95151.97;;;-3.71;67.52
77723;BME280;67811;42.656;23.394;2024-01-11T21:28:37;95153.38;;;-3.79;68.14
77723;BME280;67811;42.656;23.394;2024-01-11T21:32:42;95143.34;;;-3.84;68.32